createdAt,value
2018-07-28T00:01:16.183Z,20.90
2018-07-28T00:03:44.372Z,21.00
2018-07-28T00:06:12.598Z,21.00
2018-07-28T00:08:40.865Z,20.90
2018-07-28T00:11:09.106Z,20.90
2018-07-28T00:13:37.375Z,20.80
2018-07-28T00:16:05.635Z,20.80
2018-07-28T00:18:33.885Z,20.80
2018-07-28T00:21:02.099Z,20.80
2018-07-28T00:23:30.367Z,20.70
2018-07-28T00:25:58.626Z,20.70
2018-07-28T00:28:26.833Z,20.70
2018-07-28T00:30:55.099Z,20.70
2018-07-28T00:33:23.301Z,20.60
2018-07-28T00:35:51.516Z,20.50
2018-07-28T00:38:19.731Z,20.40
2018-07-28T00:40:47.954Z,20.40
2018-07-28T00:43:16.165Z,20.40
2018-07-28T00:45:44.449Z,20.40
2018-07-28T00:48:12.654Z,20.40
2018-07-28T00:50:40.867Z,20.40
2018-07-28T00:53:09.133Z,20.40
2018-07-28T00:55:38.137Z,20.30
2018-07-28T00:58:06.363Z,20.30
2018-07-28T01:00:34.600Z,20.30
2018-07-28T01:03:02.839Z,20.30
2018-07-28T01:05:31.087Z,20.30
2018-07-28T01:07:59.277Z,20.30
2018-07-28T01:10:27.495Z,20.20
2018-07-28T01:12:55.747Z,20.20
2018-07-28T01:15:24.740Z,20.20
2018-07-28T01:17:53.721Z,20.20
2018-07-28T01:20:21.989Z,20.20
2018-07-28T01:22:50.186Z,20.20
2018-07-28T01:25:19.199Z,20.10
2018-07-28T01:27:48.219Z,20.10
2018-07-28T01:30:16.451Z,20.10
2018-07-28T01:32:44.716Z,20.10
2018-07-28T01:35:12.915Z,20.10
2018-07-28T01:37:41.143Z,19.80
2018-07-28T01:40:09.395Z,19.70
2018-07-28T01:42:37.621Z,19.70
2018-07-28T01:45:05.821Z,19.80
2018-07-28T01:47:34.031Z,19.80
2018-07-28T01:50:02.255Z,19.80
2018-07-28T01:52:31.275Z,19.80
2018-07-28T01:55:00.295Z,19.80
2018-07-28T01:57:28.503Z,19.80
2018-07-28T01:59:56.774Z,19.80
2018-07-28T02:02:24.975Z,19.70
2018-07-28T02:04:53.968Z,19.70
2018-07-28T02:07:22.948Z,19.70
2018-07-28T02:09:51.212Z,19.70
2018-07-28T02:12:19.422Z,19.60
2018-07-28T02:14:48.435Z,19.50
2018-07-28T02:17:16.624Z,19.50
2018-07-28T02:19:44.872Z,19.50
2018-07-28T02:22:13.868Z,19.40
2018-07-28T02:24:42.836Z,19.40
2018-07-28T02:27:11.118Z,19.40
2018-07-28T02:29:39.322Z,19.50
2018-07-28T02:32:07.579Z,19.40
2018-07-28T02:34:35.830Z,19.40
2018-07-28T02:37:04.033Z,19.40
2018-07-28T02:39:33.021Z,19.20
2018-07-28T02:42:01.997Z,19.10
2018-07-28T02:44:30.282Z,19.10
2018-07-28T02:46:58.485Z,19.10
2018-07-28T02:49:26.718Z,19.10
2018-07-28T02:51:54.971Z,19.10
2018-07-28T02:54:23.177Z,19.10
2018-07-28T02:56:51.446Z,19.20
2018-07-28T02:59:19.644Z,19.10
2018-07-28T03:01:48.634Z,19.10
2018-07-28T03:04:16.891Z,19.10
2018-07-28T03:06:45.153Z,19.10
2018-07-28T03:09:13.391Z,19.10
2018-07-28T03:11:42.364Z,18.90
2018-07-28T03:14:11.390Z,18.80
2018-07-28T03:16:39.634Z,18.80
2018-07-28T03:19:07.894Z,18.80
2018-07-28T03:21:36.131Z,18.80
2018-07-28T03:24:04.346Z,18.70
2018-07-28T03:26:32.602Z,18.60
2018-07-28T03:29:00.820Z,18.50
2018-07-28T03:31:29.788Z,18.50
2018-07-28T03:33:57.993Z,18.50
2018-07-28T03:36:27.011Z,18.40
2018-07-28T03:38:55.213Z,18.40
2018-07-28T03:41:23.476Z,18.40
2018-07-28T03:43:51.727Z,18.40
2018-07-28T03:46:20.737Z,18.40
2018-07-28T03:48:48.958Z,18.40
2018-07-28T03:51:17.207Z,18.40
2018-07-28T03:53:45.466Z,18.40
2018-07-28T03:56:13.672Z,18.40
2018-07-28T03:58:42.710Z,18.40
2018-07-28T04:01:10.907Z,18.40
2018-07-28T04:03:39.127Z,18.40
2018-07-28T04:06:07.379Z,18.40
2018-07-28T04:08:35.622Z,18.40
2018-07-28T04:11:04.607Z,18.50
2018-07-28T04:13:32.842Z,18.40
2018-07-28T04:16:01.093Z,18.40
2018-07-28T04:18:29.305Z,18.40
2018-07-28T04:20:57.577Z,18.40
2018-07-28T04:23:25.817Z,18.40
2018-07-28T04:25:54.033Z,18.30
2018-07-28T04:28:22.238Z,18.30
2018-07-28T04:30:51.218Z,18.30
2018-07-28T04:33:19.486Z,18.30
2018-07-28T04:35:47.720Z,18.30
2018-07-28T04:38:15.980Z,18.30
2018-07-28T04:40:44.935Z,18.40
2018-07-28T04:43:13.225Z,18.40
2018-07-28T04:45:41.465Z,18.40
2018-07-28T04:48:09.735Z,18.50
2018-07-28T04:50:37.940Z,18.50
2018-07-28T04:53:06.144Z,18.60
2018-07-28T04:55:35.165Z,18.70
2018-07-28T04:58:03.418Z,18.60
2018-07-28T05:00:32.438Z,18.80
2018-07-28T05:03:00.677Z,18.70
2018-07-28T05:05:29.639Z,18.80
2018-07-28T05:07:57.882Z,18.80
2018-07-28T05:10:26.082Z,18.90
2018-07-28T05:12:54.312Z,18.90
2018-07-28T05:15:23.334Z,19.10
2018-07-28T05:17:51.549Z,19.10
2018-07-28T05:20:19.747Z,19.20
2018-07-28T05:22:48.801Z,19.30
2018-07-28T05:25:17.002Z,19.30
2018-07-28T05:27:45.215Z,19.40
2018-07-28T05:30:14.194Z,19.60
2018-07-28T05:32:43.206Z,19.70
2018-07-28T05:35:11.422Z,19.70
2018-07-28T05:37:39.673Z,19.80
2018-07-28T05:40:07.890Z,19.90
2018-07-28T05:42:36.158Z,20.10
2018-07-28T05:45:04.412Z,20.20
2018-07-28T05:47:32.662Z,20.40
2018-07-28T05:50:01.632Z,20.70
2018-07-28T05:52:30.619Z,20.90
2018-07-28T05:54:58.897Z,20.90
2018-07-28T05:57:27.144Z,21.10
2018-07-28T05:59:55.367Z,21.20
2018-07-28T06:02:24.500Z,21.60
2018-07-28T06:04:52.632Z,21.60
2018-07-28T06:07:21.649Z,22.00
2018-07-28T06:09:50.706Z,22.20
2018-07-28T06:12:18.904Z,22.20
2018-07-28T06:14:47.937Z,22.50
2018-07-28T06:17:16.192Z,22.40
2018-07-28T06:19:45.217Z,22.60
2018-07-28T06:22:13.467Z,22.60
2018-07-28T06:24:41.695Z,22.70
2018-07-28T06:27:09.940Z,22.80
2018-07-28T06:29:38.144Z,22.90
2018-07-28T06:32:06.354Z,22.90
2018-07-28T06:34:34.566Z,23.00
2018-07-28T06:37:02.808Z,23.10
2018-07-28T06:39:31.064Z,23.20
2018-07-28T06:41:59.338Z,23.40
2018-07-28T06:44:27.539Z,23.50
2018-07-28T06:46:55.789Z,23.70
2018-07-28T06:49:24.047Z,23.80
2018-07-28T06:51:52.253Z,23.90
2018-07-28T06:54:21.244Z,24.20
2018-07-28T06:56:50.256Z,24.30
2018-07-28T06:59:19.228Z,24.40
2018-07-28T07:01:48.249Z,24.40
2018-07-28T07:04:17.280Z,24.50
2018-07-28T07:06:45.481Z,24.50
2018-07-28T07:09:13.748Z,24.60
2018-07-28T07:11:42.013Z,24.60
2018-07-28T07:14:10.275Z,24.70
2018-07-28T07:16:38.529Z,24.70
2018-07-28T07:19:06.787Z,24.90
2018-07-28T07:21:35.000Z,25.00
2018-07-28T07:24:03.213Z,24.90
2018-07-28T07:26:31.515Z,24.90
2018-07-28T07:28:59.724Z,25.20
2018-07-28T07:31:27.935Z,25.20
2018-07-28T07:33:56.199Z,25.30
2018-07-28T07:36:24.416Z,25.40
2018-07-28T07:38:53.412Z,25.50
2018-07-28T07:41:22.406Z,25.70
2018-07-28T07:43:51.398Z,25.80
2018-07-28T07:46:20.426Z,25.90
2018-07-28T07:48:48.712Z,25.90
2018-07-28T07:51:16.934Z,26.00
2018-07-28T07:53:45.169Z,26.00
2018-07-28T07:56:13.376Z,26.10
2018-07-28T07:58:41.860Z,26.20
2018-07-28T08:01:10.116Z,26.20
2018-07-28T08:03:38.336Z,26.30
2018-07-28T08:06:07.313Z,26.40
2018-07-28T08:08:35.524Z,26.30
2018-07-28T08:11:03.760Z,26.50
2018-07-28T08:13:32.023Z,26.50
2018-07-28T08:16:00.258Z,26.60
2018-07-28T08:18:28.529Z,26.60
2018-07-28T08:20:57.527Z,26.80
2018-07-28T08:23:26.555Z,26.80
2018-07-28T08:25:54.811Z,26.80
2018-07-28T08:28:23.036Z,26.90
2018-07-28T08:30:51.265Z,27.00
2018-07-28T08:33:19.545Z,27.10
2018-07-28T08:35:48.545Z,27.30
2018-07-28T08:38:16.823Z,27.30
2018-07-28T08:40:45.041Z,27.40
2018-07-28T08:43:13.256Z,27.50
2018-07-28T08:45:41.458Z,27.60
2018-07-28T08:48:09.692Z,27.70
2018-07-28T08:50:38.677Z,27.90
2018-07-28T08:53:07.713Z,28.00
2018-07-28T08:55:36.735Z,28.20
2018-07-28T08:58:05.664Z,28.30
2018-07-28T09:00:34.667Z,28.30
2018-07-28T09:03:03.668Z,28.50
2018-07-28T09:05:31.941Z,28.40
2018-07-28T09:08:00.980Z,28.70
2018-07-28T09:10:29.282Z,28.80
2018-07-28T09:12:57.451Z,28.90
2018-07-28T09:15:25.740Z,28.90
2018-07-28T09:17:53.956Z,29.00
2018-07-28T09:20:22.270Z,29.10
2018-07-28T09:22:50.517Z,29.10
2018-07-28T09:25:18.735Z,29.10
2018-07-28T09:27:46.945Z,29.10
2018-07-28T09:30:15.161Z,29.20
2018-07-28T09:32:44.192Z,29.40
2018-07-28T09:35:12.392Z,29.30
2018-07-28T09:37:40.742Z,29.40
2018-07-28T09:40:09.642Z,29.50
2018-07-28T09:42:37.850Z,29.40
2018-07-28T09:45:06.091Z,29.60
2018-07-28T09:47:34.314Z,29.60
2018-07-28T09:50:02.560Z,29.70
2018-07-28T09:52:31.541Z,29.90
2018-07-28T09:55:00.526Z,29.90
2018-07-28T09:57:28.740Z,29.90
2018-07-28T09:59:57.016Z,29.90
2018-07-28T10:02:25.279Z,30.00
2018-07-28T10:04:54.296Z,30.10
2018-07-28T10:07:22.566Z,30.10
2018-07-28T10:09:50.817Z,30.30
2018-07-28T10:12:19.076Z,30.30
2018-07-28T10:14:47.321Z,30.40
2018-07-28T10:17:15.568Z,30.50
2018-07-28T10:19:43.804Z,30.50
2018-07-28T10:22:12.034Z,30.50
2018-07-28T10:24:40.298Z,30.50
2018-07-28T10:27:09.292Z,30.60
2018-07-28T10:29:37.494Z,30.60
2018-07-28T10:32:05.734Z,30.50
2018-07-28T10:34:34.754Z,30.20
2018-07-28T10:37:03.008Z,30.20
2018-07-28T10:39:31.990Z,29.80
2018-07-28T10:42:00.969Z,29.60
2018-07-28T10:44:29.203Z,29.50
2018-07-28T10:46:57.465Z,29.30
2018-07-28T10:49:25.695Z,29.10
2018-07-28T10:51:54.011Z,29.00
2018-07-28T10:54:22.975Z,28.70
2018-07-28T10:56:51.217Z,28.70
2018-07-28T10:59:19.437Z,28.60
2018-07-28T11:01:48.435Z,28.40
2018-07-28T11:04:17.410Z,28.40
2018-07-28T11:06:46.429Z,28.30
2018-07-28T11:09:15.569Z,28.30
2018-07-28T11:11:43.736Z,28.20
2018-07-28T11:14:12.019Z,28.30
2018-07-28T11:16:40.266Z,28.30
2018-07-28T11:19:08.591Z,28.30
2018-07-28T11:21:36.757Z,28.30
2018-07-28T11:24:05.429Z,28.40
2018-07-28T11:26:33.649Z,28.60
2018-07-28T11:29:01.855Z,28.80
2018-07-28T11:31:30.080Z,29.10
2018-07-28T11:37:13.503Z,29.70
2018-07-28T11:39:53.660Z,29.80
2018-07-28T11:45:21.614Z,30.30
2018-07-28T11:47:49.809Z,30.30
2018-07-28T11:50:18.055Z,30.40
2018-07-28T11:52:46.277Z,30.50
2018-07-28T11:55:14.494Z,30.70
2018-07-28T11:57:42.754Z,30.80
2018-07-28T12:00:10.983Z,30.90
2018-07-28T12:02:39.288Z,31.10
2018-07-28T12:05:07.508Z,31.10
2018-07-28T12:07:35.756Z,31.20
2018-07-28T12:10:03.969Z,31.20
2018-07-28T12:12:32.977Z,31.40
2018-07-28T12:15:01.167Z,31.30
2018-07-28T12:17:29.434Z,31.40
2018-07-28T12:19:58.470Z,31.60
2018-07-28T12:22:26.684Z,31.60
2018-07-28T12:24:55.664Z,31.80
2018-07-28T12:27:23.928Z,31.70
2018-07-28T12:29:52.888Z,32.00
2018-07-28T12:32:21.150Z,32.00
2018-07-28T12:34:49.434Z,32.10
2018-07-28T12:37:17.664Z,32.20
2018-07-28T12:39:45.910Z,32.30
2018-07-28T12:42:14.168Z,32.30
2018-07-28T12:44:42.429Z,32.30
2018-07-28T12:47:11.440Z,32.20
2018-07-28T12:49:39.673Z,32.20
2018-07-28T12:52:07.939Z,32.20
2018-07-28T12:54:36.211Z,32.10
2018-07-28T12:57:04.406Z,32.00
2018-07-28T12:59:33.430Z,31.60
2018-07-28T13:02:02.459Z,31.60
2018-07-28T13:04:30.661Z,31.60
2018-07-28T13:06:58.903Z,31.40
2018-07-28T13:09:27.934Z,31.20
2018-07-28T13:11:56.180Z,31.10
2018-07-28T13:14:24.445Z,31.00
2018-07-28T13:16:52.661Z,31.00
2018-07-28T13:19:20.885Z,31.00
2018-07-28T13:21:49.101Z,30.80
2018-07-28T13:24:17.373Z,30.50
2018-07-28T13:26:45.619Z,30.70
2018-07-28T13:29:13.848Z,30.80
2018-07-28T13:31:42.097Z,30.90
2018-07-28T13:34:10.351Z,31.10
2018-07-28T13:36:38.581Z,31.30
2018-07-28T13:39:06.803Z,31.50
2018-07-28T13:41:35.033Z,31.60
2018-07-28T13:44:03.250Z,31.70
2018-07-28T13:46:31.473Z,31.90
2018-07-28T13:48:59.730Z,32.10
2018-07-28T13:51:27.943Z,32.30
2018-07-28T13:53:56.932Z,32.80
2018-07-28T13:56:25.183Z,32.80
2018-07-28T13:58:53.451Z,33.20
2018-07-28T14:01:21.654Z,33.30
2018-07-28T14:03:49.900Z,33.50
2018-07-28T14:06:18.140Z,33.60
2018-07-28T14:08:47.116Z,33.70
2018-07-28T14:11:16.159Z,33.90
2018-07-28T14:13:44.412Z,33.90
2018-07-28T14:16:12.631Z,34.00
2018-07-28T14:18:40.884Z,34.20
2018-07-28T14:21:09.110Z,34.30
2018-07-28T14:23:37.322Z,34.40
2018-07-28T14:26:05.520Z,34.50
2018-07-28T14:28:33.751Z,34.70
2018-07-28T14:31:02.785Z,34.90
2018-07-28T14:33:31.039Z,34.90
2018-07-28T14:35:59.298Z,34.90
2018-07-28T14:38:28.335Z,35.10
2018-07-28T14:40:56.543Z,35.00
2018-07-28T14:43:24.810Z,35.60
2018-07-28T14:45:53.175Z,36.00
2018-07-28T14:48:21.372Z,36.40
2018-07-28T14:50:49.602Z,36.60
2018-07-28T14:53:17.858Z,36.60
2018-07-28T14:55:46.060Z,36.40
2018-07-28T14:58:14.308Z,36.10
2018-07-28T15:00:43.314Z,35.60
2018-07-28T15:03:11.544Z,35.60
2018-07-28T15:05:39.789Z,35.40
2018-07-28T15:08:08.018Z,35.20
2018-07-28T15:10:37.004Z,35.00
2018-07-28T15:13:05.244Z,35.00
2018-07-28T15:15:33.451Z,34.80
2018-07-28T15:18:01.672Z,34.70
2018-07-28T15:20:29.947Z,34.60
2018-07-28T15:22:58.208Z,34.50
2018-07-28T15:25:27.236Z,34.10
2018-07-28T15:27:55.483Z,34.10
2018-07-28T15:30:24.525Z,33.70
2018-07-28T15:32:52.741Z,33.60
2018-07-28T15:35:21.767Z,32.60
2018-07-28T15:40:41.935Z,32.10
2018-07-28T15:43:10.172Z,31.90
2018-07-28T15:45:38.423Z,31.70
2018-07-28T15:48:06.667Z,31.70
2018-07-28T15:50:34.922Z,31.60
2018-07-28T15:53:03.195Z,31.70
2018-07-28T15:55:31.413Z,31.60
2018-07-28T15:58:00.628Z,31.00
2018-07-28T16:00:30.364Z,30.80
2018-07-28T16:02:58.607Z,30.80
2018-07-28T16:05:26.864Z,30.60
2018-07-28T16:07:55.127Z,30.30
2018-07-28T16:10:24.080Z,30.30
2018-07-28T16:12:52.851Z,30.40
2018-07-28T16:15:21.812Z,30.10
2018-07-28T16:17:50.857Z,30.00
2018-07-28T16:20:19.090Z,30.00
2018-07-28T16:22:48.114Z,30.10
2018-07-28T16:25:16.331Z,30.00
2018-07-28T16:27:44.614Z,29.90
2018-07-28T16:30:12.814Z,29.90
2018-07-28T16:32:41.826Z,29.90
2018-07-28T16:35:10.056Z,29.90
2018-07-28T16:37:38.324Z,29.90
2018-07-28T16:40:06.591Z,29.70
2018-07-28T16:42:35.578Z,29.80
2018-07-28T16:45:03.781Z,29.80
2018-07-28T16:47:32.019Z,29.70
2018-07-28T16:50:00.276Z,29.60
2018-07-28T16:52:29.314Z,29.20
2018-07-28T16:54:58.424Z,29.20
2018-07-28T16:57:26.678Z,29.20
2018-07-28T16:59:54.942Z,29.20
2018-07-28T17:02:23.190Z,29.30
2018-07-28T17:04:52.222Z,29.20
2018-07-28T17:07:20.467Z,29.10
2018-07-28T17:09:49.480Z,29.20
2018-07-28T17:12:17.732Z,29.20
2018-07-28T17:14:46.026Z,29.10
2018-07-28T17:17:14.284Z,29.00
2018-07-28T17:19:43.285Z,28.60
2018-07-28T17:22:12.288Z,28.70
2018-07-28T17:24:40.559Z,28.60
2018-07-28T17:27:09.532Z,28.00
2018-07-28T17:29:38.564Z,27.90
2018-07-28T17:32:06.810Z,27.90
2018-07-28T17:34:35.087Z,28.00
2018-07-28T17:37:03.282Z,27.90
2018-07-28T17:39:31.567Z,28.00
2018-07-28T17:41:59.777Z,28.10
2018-07-28T17:44:27.985Z,28.20
2018-07-28T17:46:56.983Z,28.20
2018-07-28T17:49:25.243Z,28.20
2018-07-28T17:51:53.467Z,28.20
2018-07-28T17:54:21.699Z,28.20
2018-07-28T17:56:49.929Z,28.20
2018-07-28T17:59:18.158Z,28.20
2018-07-28T18:01:46.400Z,28.20
2018-07-28T18:04:14.610Z,28.20
2018-07-28T18:06:42.848Z,28.10
2018-07-28T18:09:11.119Z,28.00
2018-07-28T18:11:39.379Z,28.00
2018-07-28T18:14:07.655Z,27.90
2018-07-28T18:16:35.875Z,27.90
2018-07-28T18:19:04.081Z,27.90
2018-07-28T18:21:33.394Z,27.90
2018-07-28T18:24:01.619Z,27.80
2018-07-28T18:26:29.847Z,27.80
2018-07-28T18:28:58.103Z,27.80
2018-07-28T18:31:26.367Z,27.80
2018-07-28T18:33:54.612Z,27.80
2018-07-28T18:36:22.811Z,27.70
2018-07-28T18:38:51.099Z,27.70
2018-07-28T18:41:19.304Z,27.70
2018-07-28T18:43:47.538Z,27.60
2018-07-28T18:46:15.750Z,27.60
2018-07-28T18:48:44.840Z,27.50
2018-07-28T18:51:13.069Z,27.50
2018-07-28T18:53:41.314Z,27.50
2018-07-28T18:56:10.346Z,27.40
2018-07-28T18:58:39.412Z,27.30
2018-07-28T19:01:07.628Z,27.30
2018-07-28T19:03:35.894Z,27.30
2018-07-28T19:06:04.888Z,27.20
2018-07-28T19:08:33.872Z,27.20
2018-07-28T19:11:02.147Z,27.20
2018-07-28T19:13:30.399Z,27.20
2018-07-28T19:15:59.375Z,27.10
2018-07-28T19:18:28.372Z,27.10
2018-07-28T19:20:57.398Z,27.00
2018-07-28T19:26:23.280Z,27.00
2018-07-28T19:28:51.498Z,27.00
2018-07-28T19:31:19.739Z,26.90
2018-07-28T19:33:47.976Z,27.00
2018-07-28T19:36:16.186Z,27.00
2018-07-28T19:38:44.456Z,26.90
2018-07-28T19:41:12.710Z,26.90
2018-07-28T19:43:40.930Z,26.70
2018-07-28T19:46:09.193Z,26.70
2018-07-28T19:48:37.424Z,26.60
2018-07-28T19:51:05.694Z,26.60
2018-07-28T19:53:33.951Z,26.60
2018-07-28T19:56:02.992Z,26.50
2018-07-28T19:58:31.238Z,26.50
2018-07-28T20:01:00.204Z,26.50
2018-07-28T20:03:29.213Z,26.50
2018-07-28T20:05:58.200Z,26.50
2018-07-28T20:08:27.177Z,26.40
2018-07-28T20:10:55.427Z,26.40
2018-07-28T20:13:23.656Z,26.40
2018-07-28T20:15:52.635Z,26.20
2018-07-28T20:18:21.659Z,26.20
2018-07-28T20:20:49.864Z,26.10
2018-07-28T20:23:18.081Z,26.20
2018-07-28T20:25:47.127Z,26.10
2018-07-28T20:28:15.372Z,26.10
2018-07-28T20:30:44.413Z,26.10
2018-07-28T20:33:12.623Z,26.10
2018-07-28T20:35:41.653Z,26.00
2018-07-28T20:38:09.873Z,26.00
2018-07-28T20:40:38.188Z,25.90
2018-07-28T20:43:06.369Z,25.90
2018-07-28T20:45:34.628Z,25.90
2018-07-28T20:48:02.893Z,25.80
2018-07-28T20:50:31.091Z,25.80
2018-07-28T20:53:00.067Z,25.60
2018-07-28T20:55:29.091Z,25.50
2018-07-28T20:57:58.069Z,25.50
2018-07-28T21:00:27.159Z,25.30
2018-07-28T21:02:55.359Z,25.20
2018-07-28T21:05:23.623Z,25.20
2018-07-28T21:07:52.646Z,25.10
2018-07-28T21:10:20.846Z,25.10
2018-07-28T21:12:49.087Z,24.90
2018-07-28T21:15:17.293Z,24.90
2018-07-28T21:17:45.572Z,24.90
2018-07-28T21:20:13.830Z,24.90
2018-07-28T21:22:42.097Z,24.90
2018-07-28T21:25:10.354Z,24.90
2018-07-28T21:27:39.343Z,24.80
2018-07-28T21:30:08.385Z,24.60
2018-07-28T21:32:36.658Z,24.50
2018-07-28T21:35:04.909Z,24.60
2018-07-28T21:37:33.876Z,24.60
2018-07-28T21:40:02.151Z,24.60
2018-07-28T21:42:31.139Z,24.70
2018-07-28T21:44:59.430Z,24.60
2018-07-28T21:47:27.624Z,24.60
2018-07-28T21:49:55.834Z,24.60
2018-07-28T21:52:24.080Z,24.60
2018-07-28T21:54:52.318Z,24.60
2018-07-28T21:57:20.597Z,24.60
2018-07-28T21:59:48.822Z,24.60
2018-07-28T22:02:17.116Z,24.60
2018-07-28T22:04:45.352Z,24.60
2018-07-28T22:07:14.329Z,24.60
2018-07-28T22:09:42.607Z,24.60
2018-07-28T22:12:11.584Z,24.60
2018-07-28T22:14:39.845Z,24.60
2018-07-28T22:17:08.120Z,24.50
2018-07-28T22:19:36.366Z,24.60
2018-07-28T22:22:04.580Z,24.50
2018-07-28T22:24:32.807Z,24.50
2018-07-28T22:27:01.095Z,24.40
2018-07-28T22:29:29.341Z,24.50
2018-07-28T22:31:58.323Z,24.40
2018-07-28T22:34:27.349Z,24.40
2018-07-28T22:36:55.548Z,24.40
2018-07-28T22:39:23.825Z,24.40
2018-07-28T22:41:52.065Z,24.40
2018-07-28T22:44:21.104Z,24.40
2018-07-28T22:46:49.357Z,24.40
2018-07-28T22:49:17.564Z,24.40
2018-07-28T22:51:45.807Z,24.30
2018-07-28T22:54:14.065Z,24.30
2018-07-28T22:56:43.043Z,24.40
2018-07-28T22:59:12.011Z,24.40
2018-07-28T23:01:40.268Z,24.40
2018-07-28T23:04:08.544Z,24.40
2018-07-28T23:06:36.759Z,24.40
2018-07-28T23:09:05.020Z,24.40
2018-07-28T23:11:33.237Z,24.30
2018-07-28T23:14:01.508Z,24.30
2018-07-28T23:16:29.744Z,24.30
2018-07-28T23:18:57.964Z,24.30
2018-07-28T23:21:26.225Z,24.20
2018-07-28T23:23:54.480Z,24.20
2018-07-28T23:26:22.702Z,24.30
2018-07-28T23:28:50.920Z,24.20
2018-07-28T23:31:19.141Z,24.30
2018-07-28T23:33:48.126Z,24.30
2018-07-28T23:36:17.122Z,24.30
2018-07-28T23:38:46.104Z,24.30
2018-07-28T23:41:14.328Z,24.30
2018-07-28T23:43:42.595Z,24.30
2018-07-28T23:46:11.576Z,24.30
2018-07-28T23:48:39.841Z,24.30
2018-07-28T23:51:08.832Z,24.30
2018-07-28T23:53:37.843Z,24.20
2018-07-28T23:56:06.072Z,24.20
2018-07-28T23:58:34.326Z,24.20
